Robijn — PBEJ — position and weather

sailwx.info

Track history (hours):
 
Tides and Currents Weather Stations Pressure Air Temp Water Temp Dewpoint Dewpoint Depression Visibility Wind Speed Wind Dir Waves Ship Positions

Robijn

Last reported at 2015-Feb-25 14:03 UTC. Time now 2015-Feb-27 00:29 UTC.
Position N 46°02' W 001°28'.

Length 90 m; draft 3.7 m.

Type: Cargo ship. MMSI: 245909000.

Date/timePositionNaut miles runAvg speedWind from/ knotsBaromVisibWave heightAir tempDewpointWater temp
2015-Feb-25 14:03N 46°02' W 001°28'5 9.4
2015-Feb-25 13:33N 46°05' W 001°24'9 8.5
2015-Feb-25 12:33N 46°10' W 001°13'0 0.2
2015-Feb-25 11:31N 46°09' W 001°13'0 0.0
2015-Feb-25 10:31N 46°09' W 001°13'0 0.0
2015-Feb-25 09:31N 46°09' W 001°13'0 0.0
2015-Feb-25 08:31N 46°09' W 001°13'0 0.0
2015-Feb-25 07:31N 46°09' W 001°13'0 0.0
2015-Feb-25 06:31N 46°09' W 001°13'0 0.0
2015-Feb-25 05:31N 46°09' W 001°13'0 0.0
2015-Feb-25 04:28N 46°09' W 001°13'0 0.0
2015-Feb-25 03:31N 46°09' W 001°13'0 0.0
2015-Feb-25 02:31N 46°09' W 001°13'0 0.0
2015-Feb-25 01:31N 46°09' W 001°13'0 0.0
2015-Feb-25 00:28N 46°09' W 001°13'0 0.0
2015-Feb-24 23:31N 46°09' W 001°13'0 0.0
2015-Feb-24 22:31N 46°09' W 001°13'0 0.0
2015-Feb-24 21:31N 46°09' W 001°13'0 0.0
2015-Feb-24 20:31N 46°09' W 001°13'0 0.0
2015-Feb-24 19:25N 46°09' W 001°13'0 0.0
2015-Feb-24 18:31N 46°09' W 001°13'0 0.0
2015-Feb-24 17:31N 46°09' W 001°13'0 0.0
2015-Feb-24 16:31N 46°09' W 001°13'0 0.0
2015-Feb-24 15:31N 46°09' W 001°13'0 0.0
2015-Feb-24 14:31N 46°09' W 001°13'0 0.0
2015-Feb-24 13:31N 46°09' W 001°13'0 0.0
2015-Feb-24 12:31N 46°09' W 001°13'0 0.0
2015-Feb-24 11:31N 46°09' W 001°13'0 0.0
2015-Feb-24 10:31N 46°09' W 001°13'0 0.0
2015-Feb-24 09:31N 46°09' W 001°13'0 0.0
2015-Feb-24 08:31N 46°09' W 001°13'1 1.2
2015-Feb-24 07:33N 46°09' W 001°14'7 6.9
2015-Feb-24 06:33N 46°07' W 001°24'9 8.7
2015-Feb-24 05:33N 46°10' W 001°36'9 9.1
2015-Feb-24 04:33N 46°15' W 001°47'9 8.9
2015-Feb-24 03:33N 46°21' W 001°57'9 8.9
2015-Feb-24 02:33N 46°26' W 002°07'9 8.8
2015-Feb-24 01:33N 46°31' W 002°17'131 8.7
2015-Feb-23 10:33N 47°50' W 004°51'10 9.9
2015-Feb-23 09:33N 47°56' W 005°03'251 6.6
2015-Feb-21 19:33N 50°32' W 000°02'1211.9
2015-Feb-21 18:33N 50°36' E 000°17'1212.5
2015-Feb-21 17:33N 50°39' E 000°35'1211.7
2015-Feb-21 16:33N 50°46' E 000°51'1310.4
2015-Feb-21 15:20N 50°54' E 001°06'7 9.1
2015-Feb-21 14:33N 50°58' E 001°15'8 7.6
2015-Feb-21 13:33N 51°03' E 001°24'8 8.0
2015-Feb-21 12:33N 51°08' E 001°34'10 9.7
2015-Feb-21 11:33N 51°15' E 001°45'1313.0
2015-Feb-21 10:34N 51°27' E 001°55'1313.2
2015-Feb-21 09:33N 51°36' E 002°09'12010.7
2015-Feb-20 22:16N 53°06' E 004°20'1810.8
2015-Feb-20 20:33N 53°23' E 004°35'9 8.9
2015-Feb-20 19:33N 53°29' E 004°45'9 9.4
2015-Feb-20 18:33N 53°33' E 004°60'9 9.3
2015-Feb-20 17:33N 53°36' E 005°14'1010.5
2015-Feb-20 16:33N 53°40' E 005°31'1211.5
2015-Feb-20 15:33N 53°44' E 005°49'1311.6
2015-Feb-20 14:25N 53°47' E 006°11'3410.2
2015-Feb-20 11:07N 53°55' E 007°07'6 8.8
2015-Feb-20 10:26N 53°56' E 007°16'8 8.6
2015-Feb-20 09:30N 53°58' E 007°30'8 8.1
2015-Feb-20 08:33N 54°01' E 007°42'9 8.6
2015-Feb-20 07:33N 54°01' E 007°56'10 9.5
2015-Feb-20 06:33N 54°01' E 008°13'1212.1
2015-Feb-20 05:33N 53°58' E 008°33'1312.8
2015-Feb-20 04:33N 53°50' E 008°50'1111.4
2015-Feb-20 03:33N 53°53' E 009°09'3 2.6
2015-Feb-20 02:33N 53°55' E 009°12'9 8.5
2015-Feb-20 01:33N 54°03' E 009°18'7 6.4
2015-Feb-20 00:32N 54°09' E 009°22'9 7.5
2015-Feb-19 23:20N 54°13' E 009°36'6 7.2
2015-Feb-19 22:33N 54°18' E 009°42'6 6.1
2015-Feb-19 21:34N 54°22' E 009°49'7 7.2
2015-Feb-19 20:33N 54°22' E 010°02'4 4.0
2015-Feb-19 19:33N 54°22' E 010°09'3 3.0
2015-Feb-19 18:33N 54°24' E 010°12'10 9.9
2015-Feb-19 17:33N 54°32' E 010°23'1510.3
2015-Feb-19 16:06N 54°35' E 010°49'610.7
2015-Feb-19 15:33N 54°36' E 010°58'1010.3
2015-Feb-19 14:33N 54°35' E 011°16'1010.2
2015-Feb-19 13:33N 54°31' E 011°32'10 9.8
2015-Feb-19 12:33N 54°29' E 011°49'10 9.8
2015-Feb-19 11:33N 54°27' E 012°05'9 8.8
2015-Feb-19 10:33N 54°35' E 012°13'10 9.6
2015-Feb-19 09:33N 54°41' E 012°25'10 9.7
2015-Feb-19 08:33N 54°46' E 012°39'10 9.4
2015-Feb-19 07:31N 54°51' E 012°54'10 9.6
2015-Feb-19 06:31N 54°54' E 013°10'9 9.4
2015-Feb-19 05:31N 54°57' E 013°25'9 9.4
2015-Feb-19 04:33N 55°00' E 013°40'9 9.2
2015-Feb-19 03:33N 55°04' E 013°55'9 8.7
2015-Feb-19 02:33N 55°08' E 014°08'9 8.6
2015-Feb-19 01:33N 55°14' E 014°18'8 8.5
2015-Feb-19 00:33N 55°21' E 014°27'9 8.6
2015-Feb-18 23:33N 55°28' E 014°37'8 7.9
2015-Feb-18 22:33N 55°31' E 014°49'8 7.7
2015-Feb-18 21:33N 55°35' E 015°02'7 7.5
2015-Feb-18 20:33N 55°38' E 015°13'8 7.4
2015-Feb-18 19:29N 55°42' E 015°25'  
2015-Feb-16 14:29N 59°37' E 024°17'9 9.9
2015-Feb-16 13:33N 59°42' E 024°33'12 9.9
2015-Feb-16 12:22N 59°44' E 024°56'  
Track history (hours):
 
Tides and Currents Weather Stations Pressure Air Temp Water Temp Dewpoint Dewpoint Depression Visibility Wind Speed Wind Dir Waves Ship Positions

Robijn

Last reported at 2015-Feb-25 14:03 UTC. Time now 2015-Feb-27 00:29 UTC.
Position N 46°02' W 001°28'.

Length 90 m; draft 3.7 m.

Type: Cargo ship. MMSI: 245909000.

Date/timePositionNaut miles runAvg speedWind from/ knotsBaromVisibWave heightAir tempDewpointWater temp
2015-Feb-25 14:03N 46°02' W 001°28'5 9.4
2015-Feb-25 13:33N 46°05' W 001°24'9 8.5
2015-Feb-25 12:33N 46°10' W 001°13'0 0.2
2015-Feb-25 11:31N 46°09' W 001°13'0 0.0
2015-Feb-25 10:31N 46°09' W 001°13'0 0.0
2015-Feb-25 09:31N 46°09' W 001°13'0 0.0
2015-Feb-25 08:31N 46°09' W 001°13'0 0.0
2015-Feb-25 07:31N 46°09' W 001°13'0 0.0
2015-Feb-25 06:31N 46°09' W 001°13'0 0.0
2015-Feb-25 05:31N 46°09' W 001°13'0 0.0
2015-Feb-25 04:28N 46°09' W 001°13'0 0.0
2015-Feb-25 03:31N 46°09' W 001°13'0 0.0
2015-Feb-25 02:31N 46°09' W 001°13'0 0.0
2015-Feb-25 01:31N 46°09' W 001°13'0 0.0
2015-Feb-25 00:28N 46°09' W 001°13'0 0.0
2015-Feb-24 23:31N 46°09' W 001°13'0 0.0
2015-Feb-24 22:31N 46°09' W 001°13'0 0.0
2015-Feb-24 21:31N 46°09' W 001°13'0 0.0
2015-Feb-24 20:31N 46°09' W 001°13'0 0.0
2015-Feb-24 19:25N 46°09' W 001°13'0 0.0
2015-Feb-24 18:31N 46°09' W 001°13'0 0.0
2015-Feb-24 17:31N 46°09' W 001°13'0 0.0
2015-Feb-24 16:31N 46°09' W 001°13'0 0.0
2015-Feb-24 15:31N 46°09' W 001°13'0 0.0
2015-Feb-24 14:31N 46°09' W 001°13'0 0.0
2015-Feb-24 13:31N 46°09' W 001°13'0 0.0
2015-Feb-24 12:31N 46°09' W 001°13'0 0.0
2015-Feb-24 11:31N 46°09' W 001°13'0 0.0
2015-Feb-24 10:31N 46°09' W 001°13'0 0.0
2015-Feb-24 09:31N 46°09' W 001°13'0 0.0
2015-Feb-24 08:31N 46°09' W 001°13'1 1.2
2015-Feb-24 07:33N 46°09' W 001°14'7 6.9
2015-Feb-24 06:33N 46°07' W 001°24'9 8.7
2015-Feb-24 05:33N 46°10' W 001°36'9 9.1
2015-Feb-24 04:33N 46°15' W 001°47'9 8.9
2015-Feb-24 03:33N 46°21' W 001°57'9 8.9
2015-Feb-24 02:33N 46°26' W 002°07'9 8.8
2015-Feb-24 01:33N 46°31' W 002°17'131 8.7
2015-Feb-23 10:33N 47°50' W 004°51'10 9.9
2015-Feb-23 09:33N 47°56' W 005°03'251 6.6
2015-Feb-21 19:33N 50°32' W 000°02'1211.9
2015-Feb-21 18:33N 50°36' E 000°17'1212.5
2015-Feb-21 17:33N 50°39' E 000°35'1211.7
2015-Feb-21 16:33N 50°46' E 000°51'1310.4
2015-Feb-21 15:20N 50°54' E 001°06'7 9.1
2015-Feb-21 14:33N 50°58' E 001°15'8 7.6
2015-Feb-21 13:33N 51°03' E 001°24'8 8.0
2015-Feb-21 12:33N 51°08' E 001°34'10 9.7
2015-Feb-21 11:33N 51°15' E 001°45'1313.0
2015-Feb-21 10:34N 51°27' E 001°55'1313.2
2015-Feb-21 09:33N 51°36' E 002°09'12010.7
2015-Feb-20 22:16N 53°06' E 004°20'1810.8
2015-Feb-20 20:33N 53°23' E 004°35'9 8.9
2015-Feb-20 19:33N 53°29' E 004°45'9 9.4
2015-Feb-20 18:33N 53°33' E 004°60'9 9.3
2015-Feb-20 17:33N 53°36' E 005°14'1010.5
2015-Feb-20 16:33N 53°40' E 005°31'1211.5
2015-Feb-20 15:33N 53°44' E 005°49'1311.6
2015-Feb-20 14:25N 53°47' E 006°11'3410.2
2015-Feb-20 11:07N 53°55' E 007°07'6 8.8
2015-Feb-20 10:26N 53°56' E 007°16'8 8.6
2015-Feb-20 09:30N 53°58' E 007°30'8 8.1
2015-Feb-20 08:33N 54°01' E 007°42'9 8.6
2015-Feb-20 07:33N 54°01' E 007°56'10 9.5
2015-Feb-20 06:33N 54°01' E 008°13'1212.1
2015-Feb-20 05:33N 53°58' E 008°33'1312.8
2015-Feb-20 04:33N 53°50' E 008°50'1111.4
2015-Feb-20 03:33N 53°53' E 009°09'3 2.6
2015-Feb-20 02:33N 53°55' E 009°12'9 8.5
2015-Feb-20 01:33N 54°03' E 009°18'7 6.4
2015-Feb-20 00:32N 54°09' E 009°22'9 7.5
2015-Feb-19 23:20N 54°13' E 009°36'6 7.2
2015-Feb-19 22:33N 54°18' E 009°42'6 6.1
2015-Feb-19 21:34N 54°22' E 009°49'7 7.2
2015-Feb-19 20:33N 54°22' E 010°02'4 4.0
2015-Feb-19 19:33N 54°22' E 010°09'3 3.0
2015-Feb-19 18:33N 54°24' E 010°12'10 9.9
2015-Feb-19 17:33N 54°32' E 010°23'1510.3
2015-Feb-19 16:06N 54°35' E 010°49'610.7
2015-Feb-19 15:33N 54°36' E 010°58'1010.3
2015-Feb-19 14:33N 54°35' E 011°16'1010.2
2015-Feb-19 13:33N 54°31' E 011°32'10 9.8
2015-Feb-19 12:33N 54°29' E 011°49'10 9.8
2015-Feb-19 11:33N 54°27' E 012°05'9 8.8
2015-Feb-19 10:33N 54°35' E 012°13'10 9.6
2015-Feb-19 09:33N 54°41' E 012°25'10 9.7
2015-Feb-19 08:33N 54°46' E 012°39'10 9.4
2015-Feb-19 07:31N 54°51' E 012°54'10 9.6
2015-Feb-19 06:31N 54°54' E 013°10'9 9.4
2015-Feb-19 05:31N 54°57' E 013°25'9 9.4
2015-Feb-19 04:33N 55°00' E 013°40'9 9.2
2015-Feb-19 03:33N 55°04' E 013°55'9 8.7
2015-Feb-19 02:33N 55°08' E 014°08'9 8.6
2015-Feb-19 01:33N 55°14' E 014°18'8 8.5
2015-Feb-19 00:33N 55°21' E 014°27'9 8.6
2015-Feb-18 23:33N 55°28' E 014°37'8 7.9
2015-Feb-18 22:33N 55°31' E 014°49'8 7.7
2015-Feb-18 21:33N 55°35' E 015°02'7 7.5
2015-Feb-18 20:33N 55°38' E 015°13'8 7.4
2015-Feb-18 19:29N 55°42' E 015°25'  
2015-Feb-16 14:29N 59°37' E 024°17'9 9.9
2015-Feb-16 13:33N 59°42' E 024°33'12 9.9
2015-Feb-16 12:22N 59°44' E 024°56'  

Dump ship's entire track history